sensor_id;sensor_type;location;lat;lon;timestamp;P1;durP1;ratioP1;P2;durP2;ratioP2
47523;SDS011;33253;42.144;25.884;2023-09-30T00:01:57;12.77;;;6.72;;
47523;SDS011;33253;42.144;25.884;2023-09-30T00:04:23;15.38;;;6.78;;
47523;SDS011;33253;42.144;25.884;2023-09-30T00:06:49;15.27;;;6.47;;
47523;SDS011;33253;42.144;25.884;2023-09-30T00:09:14;12.48;;;7.25;;
47523;SDS011;33253;42.144;25.884;2023-09-30T00:11:39;17.15;;;6.85;;
47523;SDS011;33253;42.144;25.884;2023-09-30T00:14:05;20.85;;;7.00;;
47523;SDS011;33253;42.144;25.884;2023-09-30T00:16:30;13.52;;;6.53;;
47523;SDS011;33253;42.144;25.884;2023-09-30T00:18:56;14.10;;;6.40;;
47523;SDS011;33253;42.144;25.884;2023-09-30T00:21:23;16.02;;;7.13;;
47523;SDS011;33253;42.144;25.884;2023-09-30T00:23:48;19.10;;;6.43;;
47523;SDS011;33253;42.144;25.884;2023-09-30T00:26:14;13.38;;;6.63;;
47523;SDS011;33253;42.144;25.884;2023-09-30T00:28:39;14.45;;;6.40;;
47523;SDS011;33253;42.144;25.884;2023-09-30T00:31:08;14.15;;;6.38;;
47523;SDS011;33253;42.144;25.884;2023-09-30T00:33:36;18.58;;;6.68;;
47523;SDS011;33253;42.144;25.884;2023-09-30T00:36:09;21.67;;;7.07;;
47523;SDS011;33253;42.144;25.884;2023-09-30T00:38:36;15.43;;;6.45;;
47523;SDS011;33253;42.144;25.884;2023-09-30T00:41:02;15.38;;;6.50;;
47523;SDS011;33253;42.144;25.884;2023-09-30T00:43:27;15.43;;;6.18;;
47523;SDS011;33253;42.144;25.884;2023-09-30T00:46:01;20.25;;;6.82;;
47523;SDS011;33253;42.144;25.884;2023-09-30T00:48:31;22.77;;;6.53;;
47523;SDS011;33253;42.144;25.884;2023-09-30T00:50:57;16.63;;;6.35;;
47523;SDS011;33253;42.144;25.884;2023-09-30T00:53:23;13.45;;;6.25;;
47523;SDS011;33253;42.144;25.884;2023-09-30T00:55:49;16.35;;;6.63;;
47523;SDS011;33253;42.144;25.884;2023-09-30T00:58:16;15.38;;;6.82;;
47523;SDS011;33253;42.144;25.884;2023-09-30T01:00:42;12.25;;;6.25;;
47523;SDS011;33253;42.144;25.884;2023-09-30T01:03:07;22.20;;;6.78;;
47523;SDS011;33253;42.144;25.884;2023-09-30T01:05:33;12.38;;;6.35;;
47523;SDS011;33253;42.144;25.884;2023-09-30T01:07:59;16.55;;;6.75;;
47523;SDS011;33253;42.144;25.884;2023-09-30T01:10:27;12.23;;;6.88;;
47523;SDS011;33253;42.144;25.884;2023-09-30T01:12:53;14.75;;;6.65;;
47523;SDS011;33253;42.144;25.884;2023-09-30T01:15:19;13.18;;;6.70;;
47523;SDS011;33253;42.144;25.884;2023-09-30T01:17:44;18.50;;;7.25;;
47523;SDS011;33253;42.144;25.884;2023-09-30T01:20:10;18.58;;;6.70;;
47523;SDS011;33253;42.144;25.884;2023-09-30T01:22:41;12.55;;;5.85;;
47523;SDS011;33253;42.144;25.884;2023-09-30T01:25:07;15.55;;;6.40;;
47523;SDS011;33253;42.144;25.884;2023-09-30T01:27:34;12.90;;;6.95;;
47523;SDS011;33253;42.144;25.884;2023-09-30T01:30:00;11.50;;;5.95;;
47523;SDS011;33253;42.144;25.884;2023-09-30T01:32:26;15.27;;;6.47;;
47523;SDS011;33253;42.144;25.884;2023-09-30T01:34:51;11.82;;;6.32;;
47523;SDS011;33253;42.144;25.884;2023-09-30T01:37:17;19.48;;;8.80;;
47523;SDS011;33253;42.144;25.884;2023-09-30T01:39:42;24.15;;;6.68;;
47523;SDS011;33253;42.144;25.884;2023-09-30T01:42:10;15.02;;;6.90;;
47523;SDS011;33253;42.144;25.884;2023-09-30T01:44:35;18.35;;;7.22;;
47523;SDS011;33253;42.144;25.884;2023-09-30T01:47:01;20.17;;;7.15;;
47523;SDS011;33253;42.144;25.884;2023-09-30T01:49:26;15.73;;;8.02;;
47523;SDS011;33253;42.144;25.884;2023-09-30T01:51:52;15.18;;;7.25;;
47523;SDS011;33253;42.144;25.884;2023-09-30T01:54:18;12.85;;;8.68;;
47523;SDS011;33253;42.144;25.884;2023-09-30T01:56:43;17.80;;;8.75;;
47523;SDS011;33253;42.144;25.884;2023-09-30T01:59:08;16.13;;;8.57;;
47523;SDS011;33253;42.144;25.884;2023-09-30T02:01:34;16.67;;;9.52;;
47523;SDS011;33253;42.144;25.884;2023-09-30T02:03:59;17.55;;;8.48;;
47523;SDS011;33253;42.144;25.884;2023-09-30T02:06:25;16.45;;;8.88;;
47523;SDS011;33253;42.144;25.884;2023-09-30T02:08:50;16.58;;;8.82;;
47523;SDS011;33253;42.144;25.884;2023-09-30T02:11:16;18.77;;;9.07;;
47523;SDS011;33253;42.144;25.884;2023-09-30T02:13:42;17.90;;;9.07;;
47523;SDS011;33253;42.144;25.884;2023-09-30T02:16:13;18.08;;;8.18;;
47523;SDS011;33253;42.144;25.884;2023-09-30T02:18:40;22.58;;;9.60;;
47523;SDS011;33253;42.144;25.884;2023-09-30T02:21:07;18.75;;;8.70;;
47523;SDS011;33253;42.144;25.884;2023-09-30T02:23:34;19.35;;;9.18;;
47523;SDS011;33253;42.144;25.884;2023-09-30T02:26:00;18.70;;;9.27;;
47523;SDS011;33253;42.144;25.884;2023-09-30T02:28:27;17.13;;;8.95;;
47523;SDS011;33253;42.144;25.884;2023-09-30T02:30:52;19.45;;;9.88;;
47523;SDS011;33253;42.144;25.884;2023-09-30T02:33:18;16.58;;;9.90;;
47523;SDS011;33253;42.144;25.884;2023-09-30T02:35:44;22.98;;;8.95;;
47523;SDS011;33253;42.144;25.884;2023-09-30T02:38:10;19.70;;;8.60;;
47523;SDS011;33253;42.144;25.884;2023-09-30T02:40:36;16.83;;;8.48;;
47523;SDS011;33253;42.144;25.884;2023-09-30T02:43:03;14.20;;;7.53;;
47523;SDS011;33253;42.144;25.884;2023-09-30T02:45:29;12.75;;;8.07;;
47523;SDS011;33253;42.144;25.884;2023-09-30T02:47:54;15.65;;;7.60;;
47523;SDS011;33253;42.144;25.884;2023-09-30T02:50:20;13.13;;;8.02;;
47523;SDS011;33253;42.144;25.884;2023-09-30T02:52:46;15.88;;;7.72;;
47523;SDS011;33253;42.144;25.884;2023-09-30T02:55:12;12.50;;;6.85;;
47523;SDS011;33253;42.144;25.884;2023-09-30T02:57:38;13.07;;;7.18;;
47523;SDS011;33253;42.144;25.884;2023-09-30T03:00:04;19.65;;;7.53;;
47523;SDS011;33253;42.144;25.884;2023-09-30T03:02:48;12.88;;;6.88;;
47523;SDS011;33253;42.144;25.884;2023-09-30T03:05:15;17.33;;;7.45;;
47523;SDS011;33253;42.144;25.884;2023-09-30T03:07:40;15.38;;;7.50;;
47523;SDS011;33253;42.144;25.884;2023-09-30T03:10:06;12.68;;;7.93;;
47523;SDS011;33253;42.144;25.884;2023-09-30T03:12:34;17.15;;;7.32;;
47523;SDS011;33253;42.144;25.884;2023-09-30T03:15:00;13.27;;;8.07;;
47523;SDS011;33253;42.144;25.884;2023-09-30T03:17:29;20.23;;;7.93;;
47523;SDS011;33253;42.144;25.884;2023-09-30T03:19:58;14.85;;;8.48;;
47523;SDS011;33253;42.144;25.884;2023-09-30T03:22:24;18.23;;;8.82;;
47523;SDS011;33253;42.144;25.884;2023-09-30T03:24:52;17.27;;;8.25;;
47523;SDS011;33253;42.144;25.884;2023-09-30T03:27:19;15.85;;;7.82;;
47523;SDS011;33253;42.144;25.884;2023-09-30T03:29:45;15.93;;;8.40;;
47523;SDS011;33253;42.144;25.884;2023-09-30T03:32:11;12.60;;;7.45;;
47523;SDS011;33253;42.144;25.884;2023-09-30T03:34:36;13.57;;;6.93;;
47523;SDS011;33253;42.144;25.884;2023-09-30T03:37:02;13.57;;;7.53;;
47523;SDS011;33253;42.144;25.884;2023-09-30T03:39:28;16.48;;;8.00;;
47523;SDS011;33253;42.144;25.884;2023-09-30T03:41:54;12.95;;;7.78;;
47523;SDS011;33253;42.144;25.884;2023-09-30T03:44:21;14.32;;;7.53;;
47523;SDS011;33253;42.144;25.884;2023-09-30T03:46:48;10.52;;;7.15;;
47523;SDS011;33253;42.144;25.884;2023-09-30T03:49:13;16.70;;;7.68;;
47523;SDS011;33253;42.144;25.884;2023-09-30T03:51:39;20.77;;;7.97;;
47523;SDS011;33253;42.144;25.884;2023-09-30T03:54:04;11.30;;;7.53;;
47523;SDS011;33253;42.144;25.884;2023-09-30T03:56:31;12.82;;;7.32;;
47523;SDS011;33253;42.144;25.884;2023-09-30T03:58:57;18.42;;;8.00;;
47523;SDS011;33253;42.144;25.884;2023-09-30T04:01:23;11.25;;;7.88;;
47523;SDS011;33253;42.144;25.884;2023-09-30T04:03:50;13.32;;;7.28;;
47523;SDS011;33253;42.144;25.884;2023-09-30T04:06:19;11.43;;;8.20;;
47523;SDS011;33253;42.144;25.884;2023-09-30T04:08:44;12.45;;;7.75;;
47523;SDS011;33253;42.144;25.884;2023-09-30T04:11:10;16.45;;;7.82;;
47523;SDS011;33253;42.144;25.884;2023-09-30T04:13:41;16.35;;;7.75;;
47523;SDS011;33253;42.144;25.884;2023-09-30T04:16:07;14.80;;;8.32;;
47523;SDS011;33253;42.144;25.884;2023-09-30T04:18:32;14.27;;;7.80;;
47523;SDS011;33253;42.144;25.884;2023-09-30T04:20:58;17.70;;;8.25;;
47523;SDS011;33253;42.144;25.884;2023-09-30T04:23:24;20.67;;;7.93;;
47523;SDS011;33253;42.144;25.884;2023-09-30T04:25:50;12.10;;;7.82;;
47523;SDS011;33253;42.144;25.884;2023-09-30T04:28:16;15.20;;;7.82;;
47523;SDS011;33253;42.144;25.884;2023-09-30T04:30:46;12.43;;;7.82;;
47523;SDS011;33253;42.144;25.884;2023-09-30T04:33:12;16.33;;;8.45;;
47523;SDS011;33253;42.144;25.884;2023-09-30T04:35:38;13.52;;;7.43;;
47523;SDS011;33253;42.144;25.884;2023-09-30T04:38:03;13.40;;;8.50;;
47523;SDS011;33253;42.144;25.884;2023-09-30T04:40:29;15.50;;;8.05;;
47523;SDS011;33253;42.144;25.884;2023-09-30T04:42:55;16.67;;;7.80;;
47523;SDS011;33253;42.144;25.884;2023-09-30T04:45:26;15.25;;;7.95;;
47523;SDS011;33253;42.144;25.884;2023-09-30T04:47:54;23.30;;;8.97;;
47523;SDS011;33253;42.144;25.884;2023-09-30T04:50:22;14.00;;;8.05;;
47523;SDS011;33253;42.144;25.884;2023-09-30T04:52:49;13.05;;;7.57;;
47523;SDS011;33253;42.144;25.884;2023-09-30T04:55:16;15.02;;;8.20;;
47523;SDS011;33253;42.144;25.884;2023-09-30T04:57:42;17.15;;;7.75;;
47523;SDS011;33253;42.144;25.884;2023-09-30T05:00:16;14.43;;;7.90;;
47523;SDS011;33253;42.144;25.884;2023-09-30T05:02:43;13.75;;;7.88;;
47523;SDS011;33253;42.144;25.884;2023-09-30T05:05:10;16.33;;;8.50;;
47523;SDS011;33253;42.144;25.884;2023-09-30T05:07:35;12.43;;;7.57;;
47523;SDS011;33253;42.144;25.884;2023-09-30T05:10:01;11.75;;;7.10;;
47523;SDS011;33253;42.144;25.884;2023-09-30T05:12:30;15.05;;;7.68;;
47523;SDS011;33253;42.144;25.884;2023-09-30T05:14:56;16.58;;;7.93;;
47523;SDS011;33253;42.144;25.884;2023-09-30T05:17:22;13.77;;;7.70;;
47523;SDS011;33253;42.144;25.884;2023-09-30T05:19:48;17.20;;;8.07;;
47523;SDS011;33253;42.144;25.884;2023-09-30T05:22:13;17.38;;;8.15;;
47523;SDS011;33253;42.144;25.884;2023-09-30T05:24:38;18.38;;;9.32;;
47523;SDS011;33253;42.144;25.884;2023-09-30T05:27:04;16.83;;;9.07;;
47523;SDS011;33253;42.144;25.884;2023-09-30T05:29:29;15.30;;;8.75;;
47523;SDS011;33253;42.144;25.884;2023-09-30T05:31:58;16.07;;;8.87;;
47523;SDS011;33253;42.144;25.884;2023-09-30T05:34:23;18.92;;;8.82;;
47523;SDS011;33253;42.144;25.884;2023-09-30T05:36:49;19.90;;;9.48;;
47523;SDS011;33253;42.144;25.884;2023-09-30T05:39:16;14.30;;;8.90;;
47523;SDS011;33253;42.144;25.884;2023-09-30T05:41:44;19.23;;;9.13;;
47523;SDS011;33253;42.144;25.884;2023-09-30T05:44:11;15.40;;;8.52;;
47523;SDS011;33253;42.144;25.884;2023-09-30T05:46:39;17.98;;;9.10;;
47523;SDS011;33253;42.144;25.884;2023-09-30T05:49:04;14.55;;;8.38;;
47523;SDS011;33253;42.144;25.884;2023-09-30T05:51:36;17.30;;;7.88;;
47523;SDS011;33253;42.144;25.884;2023-09-30T05:54:01;32.92;;;9.10;;
47523;SDS011;33253;42.144;25.884;2023-09-30T05:56:26;17.40;;;7.65;;
47523;SDS011;33253;42.144;25.884;2023-09-30T05:58:52;15.82;;;7.70;;
47523;SDS011;33253;42.144;25.884;2023-09-30T06:01:17;23.33;;;8.07;;
47523;SDS011;33253;42.144;25.884;2023-09-30T06:03:44;14.43;;;6.82;;
47523;SDS011;33253;42.144;25.884;2023-09-30T06:06:15;15.57;;;6.07;;
47523;SDS011;33253;42.144;25.884;2023-09-30T06:08:44;10.27;;;6.20;;
47523;SDS011;33253;42.144;25.884;2023-09-30T06:11:16;12.45;;;6.75;;
47523;SDS011;33253;42.144;25.884;2023-09-30T06:13:49;16.70;;;6.70;;
47523;SDS011;33253;42.144;25.884;2023-09-30T06:16:18;16.33;;;7.22;;
47523;SDS011;33253;42.144;25.884;2023-09-30T06:18:44;14.25;;;6.32;;
47523;SDS011;33253;42.144;25.884;2023-09-30T06:21:10;16.15;;;7.53;;
47523;SDS011;33253;42.144;25.884;2023-09-30T06:23:36;15.52;;;6.88;;
47523;SDS011;33253;42.144;25.884;2023-09-30T06:26:03;16.17;;;6.80;;
47523;SDS011;33253;42.144;25.884;2023-09-30T06:28:29;15.20;;;6.80;;
47523;SDS011;33253;42.144;25.884;2023-09-30T06:30:56;14.98;;;6.97;;
47523;SDS011;33253;42.144;25.884;2023-09-30T06:33:22;14.75;;;6.50;;
47523;SDS011;33253;42.144;25.884;2023-09-30T06:35:48;14.35;;;6.50;;
47523;SDS011;33253;42.144;25.884;2023-09-30T06:38:19;21.98;;;7.00;;
47523;SDS011;33253;42.144;25.884;2023-09-30T06:40:45;21.70;;;6.35;;
47523;SDS011;33253;42.144;25.884;2023-09-30T06:43:12;15.07;;;5.93;;
47523;SDS011;33253;42.144;25.884;2023-09-30T06:45:40;16.95;;;6.80;;
47523;SDS011;33253;42.144;25.884;2023-09-30T06:48:08;18.70;;;6.72;;
47523;SDS011;33253;42.144;25.884;2023-09-30T06:50:43;14.88;;;6.30;;
47523;SDS011;33253;42.144;25.884;2023-09-30T06:53:10;17.30;;;6.60;;
47523;SDS011;33253;42.144;25.884;2023-09-30T06:55:39;12.00;;;6.28;;
47523;SDS011;33253;42.144;25.884;2023-09-30T06:58:06;17.63;;;6.82;;
47523;SDS011;33253;42.144;25.884;2023-09-30T07:00:36;15.02;;;6.70;;
47523;SDS011;33253;42.144;25.884;2023-09-30T07:03:02;12.73;;;7.05;;
47523;SDS011;33253;42.144;25.884;2023-09-30T07:05:29;16.13;;;7.30;;
47523;SDS011;33253;42.144;25.884;2023-09-30T07:07:55;17.75;;;6.65;;
47523;SDS011;33253;42.144;25.884;2023-09-30T07:10:21;18.90;;;7.00;;
47523;SDS011;33253;42.144;25.884;2023-09-30T07:12:46;15.13;;;7.25;;
47523;SDS011;33253;42.144;25.884;2023-09-30T07:15:12;15.60;;;7.50;;
47523;SDS011;33253;42.144;25.884;2023-09-30T07:17:39;13.05;;;7.20;;
47523;SDS011;33253;42.144;25.884;2023-09-30T07:20:06;15.70;;;7.32;;
47523;SDS011;33253;42.144;25.884;2023-09-30T07:22:33;10.85;;;7.30;;
47523;SDS011;33253;42.144;25.884;2023-09-30T07:24:59;12.80;;;7.20;;
47523;SDS011;33253;42.144;25.884;2023-09-30T07:27:25;16.05;;;6.88;;
47523;SDS011;33253;42.144;25.884;2023-09-30T07:29:51;13.45;;;6.82;;
47523;SDS011;33253;42.144;25.884;2023-09-30T07:32:16;20.50;;;7.55;;
47523;SDS011;33253;42.144;25.884;2023-09-30T07:34:42;15.88;;;7.72;;
47523;SDS011;33253;42.144;25.884;2023-09-30T07:37:07;19.15;;;8.65;;
47523;SDS011;33253;42.144;25.884;2023-09-30T07:39:33;19.35;;;8.30;;
47523;SDS011;33253;42.144;25.884;2023-09-30T07:42:00;15.40;;;7.72;;
47523;SDS011;33253;42.144;25.884;2023-09-30T07:44:26;13.32;;;7.35;;
47523;SDS011;33253;42.144;25.884;2023-09-30T07:46:51;13.82;;;6.65;;
47523;SDS011;33253;42.144;25.884;2023-09-30T07:49:17;24.23;;;7.28;;
47523;SDS011;33253;42.144;25.884;2023-09-30T07:51:42;17.02;;;6.43;;
47523;SDS011;33253;42.144;25.884;2023-09-30T07:54:28;25.98;;;7.35;;
47523;SDS011;33253;42.144;25.884;2023-09-30T07:56:53;19.15;;;8.60;;
47523;SDS011;33253;42.144;25.884;2023-09-30T07:59:20;39.50;;;10.18;;
47523;SDS011;33253;42.144;25.884;2023-09-30T08:01:47;19.20;;;9.18;;
47523;SDS011;33253;42.144;25.884;2023-09-30T08:04:14;16.02;;;9.25;;
47523;SDS011;33253;42.144;25.884;2023-09-30T08:06:39;50.00;;;11.15;;
47523;SDS011;33253;42.144;25.884;2023-09-30T08:09:05;23.83;;;7.90;;
47523;SDS011;33253;42.144;25.884;2023-09-30T08:11:35;23.70;;;6.35;;
47523;SDS011;33253;42.144;25.884;2023-09-30T08:14:02;26.38;;;6.78;;
47523;SDS011;33253;42.144;25.884;2023-09-30T08:16:32;9.82;;;5.57;;
47523;SDS011;33253;42.144;25.884;2023-09-30T08:18:58;12.32;;;5.07;;
47523;SDS011;33253;42.144;25.884;2023-09-30T08:21:23;45.58;;;6.82;;
47523;SDS011;33253;42.144;25.884;2023-09-30T08:23:48;10.48;;;5.57;;
47523;SDS011;33253;42.144;25.884;2023-09-30T08:26:14;9.68;;;4.88;;
47523;SDS011;33253;42.144;25.884;2023-09-30T08:28:39;11.00;;;5.22;;
47523;SDS011;33253;42.144;25.884;2023-09-30T08:31:05;17.17;;;5.43;;
47523;SDS011;33253;42.144;25.884;2023-09-30T08:33:31;18.58;;;5.63;;
47523;SDS011;33253;42.144;25.884;2023-09-30T08:36:03;10.00;;;5.55;;
47523;SDS011;33253;42.144;25.884;2023-09-30T08:38:36;23.90;;;6.47;;
47523;SDS011;33253;42.144;25.884;2023-09-30T08:41:03;20.27;;;6.05;;
47523;SDS011;33253;42.144;25.884;2023-09-30T08:43:29;17.13;;;5.82;;
47523;SDS011;33253;42.144;25.884;2023-09-30T08:45:58;14.70;;;6.30;;
47523;SDS011;33253;42.144;25.884;2023-09-30T08:48:27;11.88;;;6.13;;
47523;SDS011;33253;42.144;25.884;2023-09-30T08:50:53;11.40;;;5.68;;
47523;SDS011;33253;42.144;25.884;2023-09-30T08:53:22;11.57;;;5.93;;
47523;SDS011;33253;42.144;25.884;2023-09-30T08:55:51;19.02;;;5.93;;
47523;SDS011;33253;42.144;25.884;2023-09-30T08:58:19;20.00;;;6.10;;
47523;SDS011;33253;42.144;25.884;2023-09-30T09:00:48;12.85;;;5.85;;
47523;SDS011;33253;42.144;25.884;2023-09-30T09:03:15;14.90;;;5.65;;
47523;SDS011;33253;42.144;25.884;2023-09-30T09:05:41;10.43;;;5.82;;
47523;SDS011;33253;42.144;25.884;2023-09-30T09:08:07;15.10;;;5.32;;
47523;SDS011;33253;42.144;25.884;2023-09-30T09:10:34;13.27;;;5.75;;
47523;SDS011;33253;42.144;25.884;2023-09-30T09:12:59;14.40;;;4.88;;
47523;SDS011;33253;42.144;25.884;2023-09-30T09:15:26;14.35;;;5.28;;
47523;SDS011;33253;42.144;25.884;2023-09-30T09:18:15;8.02;;;4.90;;
47523;SDS011;33253;42.144;25.884;2023-09-30T09:21:09;18.73;;;8.23;;
47523;SDS011;33253;42.144;25.884;2023-09-30T09:23:55;18.60;;;6.93;;
47523;SDS011;33253;42.144;25.884;2023-09-30T09:26:23;27.73;;;11.60;;
47523;SDS011;33253;42.144;25.884;2023-09-30T09:29:01;12.50;;;6.25;;
47523;SDS011;33253;42.144;25.884;2023-09-30T09:31:32;11.10;;;4.88;;
47523;SDS011;33253;42.144;25.884;2023-09-30T09:34:00;13.57;;;4.95;;
47523;SDS011;33253;42.144;25.884;2023-09-30T09:39:05;10.60;;;4.90;;
47523;SDS011;33253;42.144;25.884;2023-09-30T09:41:31;18.67;;;5.75;;
47523;SDS011;33253;42.144;25.884;2023-09-30T09:43:57;11.85;;;5.43;;
47523;SDS011;33253;42.144;25.884;2023-09-30T09:46:24;9.30;;;4.30;;
47523;SDS011;33253;42.144;25.884;2023-09-30T09:48:52;13.00;;;5.47;;
47523;SDS011;33253;42.144;25.884;2023-09-30T09:51:20;7.82;;;4.60;;
47523;SDS011;33253;42.144;25.884;2023-09-30T09:53:46;12.93;;;4.93;;
47523;SDS011;33253;42.144;25.884;2023-09-30T09:56:15;13.43;;;5.25;;
47523;SDS011;33253;42.144;25.884;2023-09-30T09:58:42;11.77;;;5.50;;
47523;SDS011;33253;42.144;25.884;2023-09-30T10:01:09;10.25;;;5.70;;
47523;SDS011;33253;42.144;25.884;2023-09-30T10:03:35;11.38;;;5.38;;
47523;SDS011;33253;42.144;25.884;2023-09-30T10:06:02;10.43;;;5.20;;
47523;SDS011;33253;42.144;25.884;2023-09-30T10:08:36;7.88;;;5.82;;
47523;SDS011;33253;42.144;25.884;2023-09-30T10:11:06;14.85;;;6.82;;
47523;SDS011;33253;42.144;25.884;2023-09-30T10:13:50;11.25;;;4.47;;
47523;SDS011;33253;42.144;25.884;2023-09-30T10:19:07;10.25;;;4.28;;
47523;SDS011;33253;42.144;25.884;2023-09-30T10:24:44;19.25;;;7.40;;
47523;SDS011;33253;42.144;25.884;2023-09-30T10:35:22;13.32;;;5.88;;
47523;SDS011;33253;42.144;25.884;2023-09-30T10:40:48;15.75;;;5.90;;
47523;SDS011;33253;42.144;25.884;2023-09-30T10:48:54;17.65;;;5.45;;
47523;SDS011;33253;42.144;25.884;2023-09-30T10:51:20;41.83;;;7.45;;
47523;SDS011;33253;42.144;25.884;2023-09-30T10:53:53;16.40;;;5.90;;
47523;SDS011;33253;42.144;25.884;2023-09-30T10:56:22;13.68;;;5.40;;
47523;SDS011;33253;42.144;25.884;2023-09-30T10:58:50;12.93;;;5.85;;
47523;SDS011;33253;42.144;25.884;2023-09-30T11:01:19;17.57;;;6.00;;
47523;SDS011;33253;42.144;25.884;2023-09-30T11:03:48;29.25;;;6.80;;
47523;SDS011;33253;42.144;25.884;2023-09-30T11:06:19;27.00;;;7.07;;
47523;SDS011;33253;42.144;25.884;2023-09-30T11:08:56;32.97;;;6.93;;
47523;SDS011;33253;42.144;25.884;2023-09-30T11:11:37;26.90;;;6.22;;
47523;SDS011;33253;42.144;25.884;2023-09-30T11:16:53;32.22;;;7.55;;
47523;SDS011;33253;42.144;25.884;2023-09-30T11:19:20;16.50;;;6.32;;
47523;SDS011;33253;42.144;25.884;2023-09-30T11:21:51;96.45;;;12.65;;
47523;SDS011;33253;42.144;25.884;2023-09-30T11:24:18;19.67;;;6.63;;
47523;SDS011;33253;42.144;25.884;2023-09-30T11:26:44;12.77;;;5.40;;
47523;SDS011;33253;42.144;25.884;2023-09-30T11:29:11;47.88;;;8.20;;
47523;SDS011;33253;42.144;25.884;2023-09-30T11:31:39;27.88;;;6.35;;
47523;SDS011;33253;42.144;25.884;2023-09-30T11:34:05;41.72;;;7.13;;
47523;SDS011;33253;42.144;25.884;2023-09-30T11:36:34;18.92;;;5.75;;
47523;SDS011;33253;42.144;25.884;2023-09-30T11:39:01;29.02;;;6.40;;
47523;SDS011;33253;42.144;25.884;2023-09-30T11:41:34;9.48;;;4.70;;
47523;SDS011;33253;42.144;25.884;2023-09-30T11:44:05;11.43;;;5.20;;
47523;SDS011;33253;42.144;25.884;2023-09-30T11:51:52;19.00;;;5.20;;
47523;SDS011;33253;42.144;25.884;2023-09-30T11:54:18;16.80;;;4.97;;
47523;SDS011;33253;42.144;25.884;2023-09-30T11:56:44;17.00;;;5.68;;
47523;SDS011;33253;42.144;25.884;2023-09-30T11:59:10;10.43;;;5.32;;
47523;SDS011;33253;42.144;25.884;2023-09-30T12:01:39;13.93;;;5.95;;
47523;SDS011;33253;42.144;25.884;2023-09-30T12:04:04;15.88;;;5.78;;
47523;SDS011;33253;42.144;25.884;2023-09-30T12:06:30;12.07;;;5.40;;
47523;SDS011;33253;42.144;25.884;2023-09-30T12:08:56;19.35;;;5.63;;
47523;SDS011;33253;42.144;25.884;2023-09-30T12:11:22;11.18;;;5.10;;
47523;SDS011;33253;42.144;25.884;2023-09-30T12:13:49;13.30;;;5.15;;
47523;SDS011;33253;42.144;25.884;2023-09-30T12:16:15;10.63;;;5.40;;
47523;SDS011;33253;42.144;25.884;2023-09-30T12:18:41;13.35;;;5.78;;
47523;SDS011;33253;42.144;25.884;2023-09-30T12:21:10;18.80;;;5.45;;
47523;SDS011;33253;42.144;25.884;2023-09-30T12:23:38;9.65;;;5.15;;
47523;SDS011;33253;42.144;25.884;2023-09-30T12:26:04;7.30;;;4.55;;
47523;SDS011;33253;42.144;25.884;2023-09-30T12:28:31;13.55;;;5.18;;
47523;SDS011;33253;42.144;25.884;2023-09-30T12:31:00;7.80;;;4.97;;
47523;SDS011;33253;42.144;25.884;2023-09-30T12:33:30;9.70;;;5.53;;
47523;SDS011;33253;42.144;25.884;2023-09-30T12:35:57;7.85;;;4.40;;
47523;SDS011;33253;42.144;25.884;2023-09-30T12:38:23;13.63;;;5.30;;
47523;SDS011;33253;42.144;25.884;2023-09-30T12:40:51;16.17;;;5.18;;
47523;SDS011;33253;42.144;25.884;2023-09-30T12:43:17;13.80;;;5.20;;
47523;SDS011;33253;42.144;25.884;2023-09-30T12:45:42;9.27;;;5.15;;
47523;SDS011;33253;42.144;25.884;2023-09-30T12:48:08;11.75;;;5.40;;
47523;SDS011;33253;42.144;25.884;2023-09-30T12:50:33;13.40;;;5.10;;
47523;SDS011;33253;42.144;25.884;2023-09-30T12:52:58;18.23;;;5.63;;
47523;SDS011;33253;42.144;25.884;2023-09-30T12:55:24;21.98;;;5.85;;
47523;SDS011;33253;42.144;25.884;2023-09-30T12:57:53;11.38;;;4.80;;
47523;SDS011;33253;42.144;25.884;2023-09-30T13:00:18;11.90;;;4.85;;
47523;SDS011;33253;42.144;25.884;2023-09-30T13:02:44;9.65;;;5.15;;
47523;SDS011;33253;42.144;25.884;2023-09-30T13:05:11;10.88;;;5.28;;
47523;SDS011;33253;42.144;25.884;2023-09-30T13:07:37;11.20;;;5.22;;
47523;SDS011;33253;42.144;25.884;2023-09-30T13:10:02;15.50;;;5.45;;
47523;SDS011;33253;42.144;25.884;2023-09-30T13:12:30;10.45;;;5.20;;
47523;SDS011;33253;42.144;25.884;2023-09-30T13:14:57;12.25;;;5.13;;
47523;SDS011;33253;42.144;25.884;2023-09-30T13:17:23;19.02;;;5.78;;
47523;SDS011;33253;42.144;25.884;2023-09-30T13:19:49;10.52;;;5.13;;
47523;SDS011;33253;42.144;25.884;2023-09-30T13:22:16;12.98;;;5.30;;
47523;SDS011;33253;42.144;25.884;2023-09-30T13:24:42;18.63;;;5.60;;
47523;SDS011;33253;42.144;25.884;2023-09-30T13:27:08;12.88;;;5.57;;
47523;SDS011;33253;42.144;25.884;2023-09-30T13:29:33;12.35;;;5.30;;
47523;SDS011;33253;42.144;25.884;2023-09-30T13:32:00;14.75;;;5.70;;
47523;SDS011;33253;42.144;25.884;2023-09-30T13:34:26;12.32;;;4.88;;
47523;SDS011;33253;42.144;25.884;2023-09-30T13:36:51;17.13;;;5.43;;
47523;SDS011;33253;42.144;25.884;2023-09-30T13:39:16;25.48;;;5.85;;
47523;SDS011;33253;42.144;25.884;2023-09-30T13:41:43;13.90;;;4.80;;
47523;SDS011;33253;42.144;25.884;2023-09-30T13:44:09;11.60;;;5.07;;
47523;SDS011;33253;42.144;25.884;2023-09-30T13:46:36;10.35;;;5.35;;
47523;SDS011;33253;42.144;25.884;2023-09-30T13:49:02;11.13;;;4.80;;
47523;SDS011;33253;42.144;25.884;2023-09-30T13:51:29;17.40;;;5.13;;
47523;SDS011;33253;42.144;25.884;2023-09-30T13:53:54;24.83;;;5.72;;
47523;SDS011;33253;42.144;25.884;2023-09-30T13:56:20;20.65;;;6.47;;
47523;SDS011;33253;42.144;25.884;2023-09-30T13:58:45;28.30;;;6.75;;
47523;SDS011;33253;42.144;25.884;2023-09-30T14:01:12;16.83;;;5.80;;
47523;SDS011;33253;42.144;25.884;2023-09-30T14:03:39;14.68;;;5.07;;
47523;SDS011;33253;42.144;25.884;2023-09-30T14:06:09;24.95;;;5.75;;
47523;SDS011;33253;42.144;25.884;2023-09-30T14:08:36;13.10;;;5.28;;
47523;SDS011;33253;42.144;25.884;2023-09-30T14:11:01;21.58;;;6.13;;
47523;SDS011;33253;42.144;25.884;2023-09-30T14:13:26;17.30;;;5.97;;
47523;SDS011;33253;42.144;25.884;2023-09-30T14:15:52;11.10;;;5.47;;
47523;SDS011;33253;42.144;25.884;2023-09-30T14:18:17;15.93;;;5.15;;
47523;SDS011;33253;42.144;25.884;2023-09-30T14:20:43;11.07;;;5.20;;
47523;SDS011;33253;42.144;25.884;2023-09-30T14:23:08;33.38;;;6.38;;
47523;SDS011;33253;42.144;25.884;2023-09-30T14:25:34;30.27;;;6.07;;
47523;SDS011;33253;42.144;25.884;2023-09-30T14:28:00;10.15;;;5.15;;
47523;SDS011;33253;42.144;25.884;2023-09-30T14:30:25;8.30;;;4.70;;
47523;SDS011;33253;42.144;25.884;2023-09-30T14:32:51;80.68;;;9.77;;
47523;SDS011;33253;42.144;25.884;2023-09-30T14:35:17;25.35;;;6.53;;
47523;SDS011;33253;42.144;25.884;2023-09-30T14:37:42;36.75;;;7.70;;
47523;SDS011;33253;42.144;25.884;2023-09-30T14:40:07;12.13;;;5.32;;
47523;SDS011;33253;42.144;25.884;2023-09-30T14:42:36;14.23;;;4.60;;
47523;SDS011;33253;42.144;25.884;2023-09-30T14:45:02;15.48;;;5.70;;
47523;SDS011;33253;42.144;25.884;2023-09-30T14:47:28;14.15;;;5.18;;
47523;SDS011;33253;42.144;25.884;2023-09-30T14:49:54;19.90;;;5.45;;
47523;SDS011;33253;42.144;25.884;2023-09-30T14:52:20;13.07;;;5.00;;
47523;SDS011;33253;42.144;25.884;2023-09-30T14:54:46;15.82;;;5.07;;